sensor_id;sensor_type;location;lat;lon;timestamp;P1;durP1;ratioP1;P2;durP2;ratioP2
14191;SDS011;7177;48.572;7.838;2023-12-20T00:01:28;15.63;;;11.97;;
14191;SDS011;7177;48.572;7.838;2023-12-20T00:03:54;15.03;;;11.27;;
14191;SDS011;7177;48.572;7.838;2023-12-20T00:06:19;16.37;;;11.83;;
14191;SDS011;7177;48.572;7.838;2023-12-20T00:08:45;14.33;;;11.43;;
14191;SDS011;7177;48.572;7.838;2023-12-20T00:11:10;16.80;;;12.13;;
14191;SDS011;7177;48.572;7.838;2023-12-20T00:13:36;14.53;;;11.63;;
14191;SDS011;7177;48.572;7.838;2023-12-20T00:16:02;15.57;;;12.13;;
14191;SDS011;7177;48.572;7.838;2023-12-20T00:18:27;12.63;;;10.57;;
14191;SDS011;7177;48.572;7.838;2023-12-20T00:20:53;14.37;;;10.83;;
14191;SDS011;7177;48.572;7.838;2023-12-20T00:23:18;13.93;;;10.57;;
14191;SDS011;7177;48.572;7.838;2023-12-20T00:25:44;15.90;;;10.95;;
14191;SDS011;7177;48.572;7.838;2023-12-20T00:28:10;14.67;;;11.47;;
14191;SDS011;7177;48.572;7.838;2023-12-20T00:30:35;14.13;;;10.73;;
14191;SDS011;7177;48.572;7.838;2023-12-20T00:33:01;14.83;;;10.83;;
14191;SDS011;7177;48.572;7.838;2023-12-20T00:35:27;13.20;;;10.47;;
14191;SDS011;7177;48.572;7.838;2023-12-20T00:37:53;13.77;;;11.03;;
14191;SDS011;7177;48.572;7.838;2023-12-20T00:40:18;12.47;;;10.33;;
14191;SDS011;7177;48.572;7.838;2023-12-20T00:42:44;14.10;;;10.43;;
14191;SDS011;7177;48.572;7.838;2023-12-20T00:45:11;12.80;;;10.20;;
14191;SDS011;7177;48.572;7.838;2023-12-20T00:47:37;14.00;;;10.10;;
14191;SDS011;7177;48.572;7.838;2023-12-20T00:50:03;14.47;;;10.30;;
14191;SDS011;7177;48.572;7.838;2023-12-20T00:52:28;16.70;;;11.40;;
14191;SDS011;7177;48.572;7.838;2023-12-20T00:54:54;15.23;;;10.83;;
14191;SDS011;7177;48.572;7.838;2023-12-20T00:57:19;13.30;;;10.33;;
14191;SDS011;7177;48.572;7.838;2023-12-20T00:59:45;12.47;;;10.07;;
14191;SDS011;7177;48.572;7.838;2023-12-20T01:02:10;13.90;;;10.30;;
14191;SDS011;7177;48.572;7.838;2023-12-20T01:04:36;13.47;;;10.10;;
14191;SDS011;7177;48.572;7.838;2023-12-20T01:07:01;12.13;;;9.37;;
14191;SDS011;7177;48.572;7.838;2023-12-20T01:09:27;12.10;;;10.20;;
14191;SDS011;7177;48.572;7.838;2023-12-20T01:11:53;13.83;;;10.70;;
14191;SDS011;7177;48.572;7.838;2023-12-20T01:14:18;12.37;;;9.83;;
14191;SDS011;7177;48.572;7.838;2023-12-20T01:16:44;12.97;;;10.73;;
14191;SDS011;7177;48.572;7.838;2023-12-20T01:19:10;11.50;;;9.63;;
14191;SDS011;7177;48.572;7.838;2023-12-20T01:21:35;12.60;;;9.40;;
14191;SDS011;7177;48.572;7.838;2023-12-20T01:24:01;14.10;;;9.27;;
14191;SDS011;7177;48.572;7.838;2023-12-20T01:26:26;11.87;;;9.23;;
14191;SDS011;7177;48.572;7.838;2023-12-20T01:28:52;11.97;;;9.80;;
14191;SDS011;7177;48.572;7.838;2023-12-20T01:31:18;13.43;;;10.17;;
14191;SDS011;7177;48.572;7.838;2023-12-20T01:33:44;12.97;;;9.97;;
14191;SDS011;7177;48.572;7.838;2023-12-20T01:36:09;12.53;;;10.33;;
14191;SDS011;7177;48.572;7.838;2023-12-20T01:38:36;14.65;;;10.18;;
14191;SDS011;7177;48.572;7.838;2023-12-20T01:41:02;13.70;;;10.70;;
14191;SDS011;7177;48.572;7.838;2023-12-20T01:43:27;15.13;;;10.13;;
14191;SDS011;7177;48.572;7.838;2023-12-20T01:45:53;12.97;;;10.03;;
14191;SDS011;7177;48.572;7.838;2023-12-20T01:48:21;13.30;;;9.88;;
14191;SDS011;7177;48.572;7.838;2023-12-20T01:50:48;13.10;;;9.88;;
14191;SDS011;7177;48.572;7.838;2023-12-20T01:53:14;15.47;;;11.10;;
14191;SDS011;7177;48.572;7.838;2023-12-20T01:55:40;14.97;;;10.53;;
14191;SDS011;7177;48.572;7.838;2023-12-20T01:58:09;13.57;;;9.77;;
14191;SDS011;7177;48.572;7.838;2023-12-20T02:00:37;13.85;;;10.38;;
14191;SDS011;7177;48.572;7.838;2023-12-20T02:03:03;10.80;;;9.67;;
14191;SDS011;7177;48.572;7.838;2023-12-20T02:05:32;13.07;;;10.23;;
14191;SDS011;7177;48.572;7.838;2023-12-20T02:07:58;11.55;;;10.10;;
14191;SDS011;7177;48.572;7.838;2023-12-20T02:10:24;12.90;;;10.00;;
14191;SDS011;7177;48.572;7.838;2023-12-20T02:12:50;11.55;;;8.55;;
14191;SDS011;7177;48.572;7.838;2023-12-20T02:15:16;12.27;;;9.50;;
14191;SDS011;7177;48.572;7.838;2023-12-20T02:17:42;11.97;;;8.67;;
14191;SDS011;7177;48.572;7.838;2023-12-20T02:20:08;11.35;;;9.05;;
14191;SDS011;7177;48.572;7.838;2023-12-20T02:22:34;12.23;;;9.30;;
14191;SDS011;7177;48.572;7.838;2023-12-20T02:25:00;12.27;;;8.77;;
14191;SDS011;7177;48.572;7.838;2023-12-20T02:27:25;12.10;;;8.73;;
14191;SDS011;7177;48.572;7.838;2023-12-20T02:29:52;11.63;;;8.73;;
14191;SDS011;7177;48.572;7.838;2023-12-20T02:32:17;9.90;;;8.77;;
14191;SDS011;7177;48.572;7.838;2023-12-20T02:37:12;9.87;;;8.47;;
14191;SDS011;7177;48.572;7.838;2023-12-20T02:39:37;10.37;;;7.77;;
14191;SDS011;7177;48.572;7.838;2023-12-20T02:42:03;9.87;;;6.87;;
14191;SDS011;7177;48.572;7.838;2023-12-20T02:44:28;10.83;;;8.40;;
14191;SDS011;7177;48.572;7.838;2023-12-20T02:46:54;9.67;;;7.43;;
14191;SDS011;7177;48.572;7.838;2023-12-20T02:49:19;9.80;;;7.70;;
14191;SDS011;7177;48.572;7.838;2023-12-20T02:51:45;9.07;;;7.60;;
14191;SDS011;7177;48.572;7.838;2023-12-20T02:54:11;9.63;;;7.77;;
14191;SDS011;7177;48.572;7.838;2023-12-20T02:56:36;10.23;;;7.67;;
14191;SDS011;7177;48.572;7.838;2023-12-20T02:59:02;9.37;;;7.07;;
14191;SDS011;7177;48.572;7.838;2023-12-20T03:01:30;10.83;;;7.70;;
14191;SDS011;7177;48.572;7.838;2023-12-20T03:03:56;8.17;;;7.37;;
14191;SDS011;7177;48.572;7.838;2023-12-20T03:06:21;12.03;;;7.60;;
14191;SDS011;7177;48.572;7.838;2023-12-20T03:08:47;9.73;;;7.47;;
14191;SDS011;7177;48.572;7.838;2023-12-20T03:11:12;9.30;;;7.23;;
14191;SDS011;7177;48.572;7.838;2023-12-20T03:13:38;8.00;;;6.87;;
14191;SDS011;7177;48.572;7.838;2023-12-20T03:16:09;9.30;;;7.50;;
14191;SDS011;7177;48.572;7.838;2023-12-20T03:18:35;10.27;;;6.93;;
14191;SDS011;7177;48.572;7.838;2023-12-20T03:21:01;8.60;;;7.30;;
14191;SDS011;7177;48.572;7.838;2023-12-20T03:23:27;8.57;;;7.07;;
14191;SDS011;7177;48.572;7.838;2023-12-20T03:25:52;8.73;;;7.63;;
14191;SDS011;7177;48.572;7.838;2023-12-20T03:28:18;9.30;;;7.10;;
14191;SDS011;7177;48.572;7.838;2023-12-20T03:30:44;11.27;;;7.77;;
14191;SDS011;7177;48.572;7.838;2023-12-20T03:33:09;11.00;;;7.93;;
14191;SDS011;7177;48.572;7.838;2023-12-20T03:35:35;9.30;;;8.03;;
14191;SDS011;7177;48.572;7.838;2023-12-20T03:38:01;8.50;;;7.60;;
14191;SDS011;7177;48.572;7.838;2023-12-20T03:40:26;8.93;;;7.70;;
14191;SDS011;7177;48.572;7.838;2023-12-20T03:42:52;9.63;;;7.30;;
14191;SDS011;7177;48.572;7.838;2023-12-20T03:45:17;9.73;;;7.57;;
14191;SDS011;7177;48.572;7.838;2023-12-20T03:47:43;10.50;;;7.40;;
14191;SDS011;7177;48.572;7.838;2023-12-20T03:50:08;7.63;;;6.63;;
14191;SDS011;7177;48.572;7.838;2023-12-20T03:52:34;13.00;;;7.27;;
14191;SDS011;7177;48.572;7.838;2023-12-20T03:54:59;10.03;;;7.10;;
14191;SDS011;7177;48.572;7.838;2023-12-20T03:57:25;8.93;;;7.67;;
14191;SDS011;7177;48.572;7.838;2023-12-20T03:59:50;8.00;;;7.17;;
14191;SDS011;7177;48.572;7.838;2023-12-20T04:02:16;8.53;;;7.60;;
14191;SDS011;7177;48.572;7.838;2023-12-20T04:04:42;8.97;;;7.03;;
14191;SDS011;7177;48.572;7.838;2023-12-20T04:07:08;10.77;;;7.83;;
14191;SDS011;7177;48.572;7.838;2023-12-20T04:09:34;8.30;;;7.23;;
14191;SDS011;7177;48.572;7.838;2023-12-20T04:11:59;8.00;;;7.07;;
14191;SDS011;7177;48.572;7.838;2023-12-20T04:14:25;8.93;;;6.80;;
14191;SDS011;7177;48.572;7.838;2023-12-20T04:16:50;8.23;;;7.37;;
14191;SDS011;7177;48.572;7.838;2023-12-20T04:19:16;11.03;;;8.20;;
14191;SDS011;7177;48.572;7.838;2023-12-20T04:21:41;10.03;;;8.20;;
14191;SDS011;7177;48.572;7.838;2023-12-20T04:24:07;9.73;;;7.20;;
14191;SDS011;7177;48.572;7.838;2023-12-20T04:26:33;10.90;;;8.17;;
14191;SDS011;7177;48.572;7.838;2023-12-20T04:28:58;9.60;;;7.00;;
14191;SDS011;7177;48.572;7.838;2023-12-20T04:31:24;7.93;;;6.33;;
14191;SDS011;7177;48.572;7.838;2023-12-20T04:33:49;7.47;;;6.67;;
14191;SDS011;7177;48.572;7.838;2023-12-20T04:36:15;8.30;;;6.97;;
14191;SDS011;7177;48.572;7.838;2023-12-20T04:38:40;7.80;;;6.63;;
14191;SDS011;7177;48.572;7.838;2023-12-20T04:41:06;7.67;;;6.57;;
14191;SDS011;7177;48.572;7.838;2023-12-20T04:43:31;10.93;;;7.50;;
14191;SDS011;7177;48.572;7.838;2023-12-20T04:45:57;7.50;;;6.23;;
14191;SDS011;7177;48.572;7.838;2023-12-20T04:48:23;7.93;;;6.27;;
14191;SDS011;7177;48.572;7.838;2023-12-20T04:50:48;7.80;;;6.10;;
14191;SDS011;7177;48.572;7.838;2023-12-20T04:53:14;7.33;;;6.13;;
14191;SDS011;7177;48.572;7.838;2023-12-20T04:55:39;8.87;;;6.03;;
14191;SDS011;7177;48.572;7.838;2023-12-20T04:58:05;8.87;;;6.37;;
14191;SDS011;7177;48.572;7.838;2023-12-20T05:00:30;8.27;;;6.00;;
14191;SDS011;7177;48.572;7.838;2023-12-20T05:02:56;6.47;;;5.53;;
14191;SDS011;7177;48.572;7.838;2023-12-20T05:05:21;6.63;;;5.60;;
14191;SDS011;7177;48.572;7.838;2023-12-20T05:07:47;7.20;;;6.30;;
14191;SDS011;7177;48.572;7.838;2023-12-20T05:10:12;7.27;;;6.10;;
14191;SDS011;7177;48.572;7.838;2023-12-20T05:12:38;6.90;;;6.00;;
14191;SDS011;7177;48.572;7.838;2023-12-20T05:15:05;8.87;;;5.80;;
14191;SDS011;7177;48.572;7.838;2023-12-20T05:17:31;7.83;;;6.00;;
14191;SDS011;7177;48.572;7.838;2023-12-20T05:19:57;9.90;;;6.53;;
14191;SDS011;7177;48.572;7.838;2023-12-20T05:22:22;7.60;;;5.70;;
14191;SDS011;7177;48.572;7.838;2023-12-20T05:24:48;6.83;;;5.93;;
14191;SDS011;7177;48.572;7.838;2023-12-20T05:27:14;7.30;;;5.40;;
14191;SDS011;7177;48.572;7.838;2023-12-20T05:29:39;5.90;;;4.80;;
14191;SDS011;7177;48.572;7.838;2023-12-20T05:32:05;5.07;;;4.47;;
14191;SDS011;7177;48.572;7.838;2023-12-20T05:34:31;7.90;;;4.93;;
14191;SDS011;7177;48.572;7.838;2023-12-20T05:36:57;10.10;;;5.30;;
14191;SDS011;7177;48.572;7.838;2023-12-20T05:39:23;5.77;;;4.60;;
14191;SDS011;7177;48.572;7.838;2023-12-20T05:41:48;8.57;;;5.40;;
14191;SDS011;7177;48.572;7.838;2023-12-20T05:44:14;8.33;;;5.27;;
14191;SDS011;7177;48.572;7.838;2023-12-20T05:46:40;7.77;;;5.00;;
14191;SDS011;7177;48.572;7.838;2023-12-20T05:49:06;8.13;;;5.43;;
14191;SDS011;7177;48.572;7.838;2023-12-20T05:51:32;9.77;;;5.77;;
14191;SDS011;7177;48.572;7.838;2023-12-20T05:53:57;9.00;;;5.27;;
14191;SDS011;7177;48.572;7.838;2023-12-20T05:56:23;9.10;;;4.90;;
14191;SDS011;7177;48.572;7.838;2023-12-20T05:58:49;5.73;;;4.67;;
14191;SDS011;7177;48.572;7.838;2023-12-20T06:01:14;7.83;;;5.07;;
14191;SDS011;7177;48.572;7.838;2023-12-20T06:03:42;4.97;;;4.03;;
14191;SDS011;7177;48.572;7.838;2023-12-20T06:06:09;6.57;;;4.70;;
14191;SDS011;7177;48.572;7.838;2023-12-20T06:08:35;5.00;;;3.73;;
14191;SDS011;7177;48.572;7.838;2023-12-20T06:11:01;7.43;;;4.10;;
14191;SDS011;7177;48.572;7.838;2023-12-20T06:13:26;4.63;;;3.80;;
14191;SDS011;7177;48.572;7.838;2023-12-20T06:15:53;6.17;;;4.20;;
14191;SDS011;7177;48.572;7.838;2023-12-20T06:18:20;4.80;;;3.93;;
14191;SDS011;7177;48.572;7.838;2023-12-20T06:20:45;9.07;;;4.50;;
14191;SDS011;7177;48.572;7.838;2023-12-20T06:23:11;4.97;;;4.17;;
14191;SDS011;7177;48.572;7.838;2023-12-20T06:25:36;6.17;;;4.40;;
14191;SDS011;7177;48.572;7.838;2023-12-20T06:28:02;10.83;;;5.43;;
14191;SDS011;7177;48.572;7.838;2023-12-20T06:30:27;10.50;;;5.50;;
14191;SDS011;7177;48.572;7.838;2023-12-20T06:32:53;9.00;;;5.97;;
14191;SDS011;7177;48.572;7.838;2023-12-20T06:35:19;9.63;;;5.97;;
14191;SDS011;7177;48.572;7.838;2023-12-20T06:37:45;7.97;;;5.47;;
14191;SDS011;7177;48.572;7.838;2023-12-20T06:40:11;8.70;;;5.63;;
14191;SDS011;7177;48.572;7.838;2023-12-20T06:42:37;10.87;;;6.10;;
14191;SDS011;7177;48.572;7.838;2023-12-20T06:45:02;7.60;;;5.67;;
14191;SDS011;7177;48.572;7.838;2023-12-20T06:47:28;7.57;;;5.23;;
14191;SDS011;7177;48.572;7.838;2023-12-20T06:49:54;8.37;;;5.63;;
14191;SDS011;7177;48.572;7.838;2023-12-20T06:52:19;7.90;;;5.57;;
14191;SDS011;7177;48.572;7.838;2023-12-20T06:54:45;9.27;;;6.10;;
14191;SDS011;7177;48.572;7.838;2023-12-20T06:57:11;9.30;;;6.20;;
14191;SDS011;7177;48.572;7.838;2023-12-20T06:59:40;11.27;;;7.77;;
14191;SDS011;7177;48.572;7.838;2023-12-20T07:02:06;13.60;;;7.57;;
14191;SDS011;7177;48.572;7.838;2023-12-20T07:04:31;15.27;;;8.57;;
14191;SDS011;7177;48.572;7.838;2023-12-20T07:06:57;9.80;;;6.87;;
14191;SDS011;7177;48.572;7.838;2023-12-20T07:09:25;9.47;;;7.00;;
14191;SDS011;7177;48.572;7.838;2023-12-20T07:11:51;7.47;;;3.93;;
14191;SDS011;7177;48.572;7.838;2023-12-20T07:14:17;4.27;;;3.40;;
14191;SDS011;7177;48.572;7.838;2023-12-20T07:16:42;3.97;;;3.17;;
14191;SDS011;7177;48.572;7.838;2023-12-20T07:19:08;4.70;;;3.17;;
14191;SDS011;7177;48.572;7.838;2023-12-20T07:21:33;3.50;;;3.20;;
14191;SDS011;7177;48.572;7.838;2023-12-20T07:23:59;3.57;;;2.97;;
14191;SDS011;7177;48.572;7.838;2023-12-20T07:26:24;6.20;;;3.23;;
14191;SDS011;7177;48.572;7.838;2023-12-20T07:28:50;3.53;;;3.23;;
14191;SDS011;7177;48.572;7.838;2023-12-20T07:31:16;6.83;;;4.40;;
14191;SDS011;7177;48.572;7.838;2023-12-20T07:33:41;6.10;;;4.00;;
14191;SDS011;7177;48.572;7.838;2023-12-20T07:36:07;8.37;;;5.17;;
14191;SDS011;7177;48.572;7.838;2023-12-20T07:38:33;9.13;;;6.30;;
14191;SDS011;7177;48.572;7.838;2023-12-20T07:40:58;10.20;;;6.97;;
14191;SDS011;7177;48.572;7.838;2023-12-20T07:43:24;15.90;;;10.73;;
14191;SDS011;7177;48.572;7.838;2023-12-20T07:45:49;9.83;;;6.33;;
14191;SDS011;7177;48.572;7.838;2023-12-20T07:48:15;7.40;;;4.73;;
14191;SDS011;7177;48.572;7.838;2023-12-20T07:50:41;7.30;;;3.93;;
14191;SDS011;7177;48.572;7.838;2023-12-20T07:53:07;11.33;;;5.93;;
14191;SDS011;7177;48.572;7.838;2023-12-20T07:55:32;8.97;;;5.30;;
14191;SDS011;7177;48.572;7.838;2023-12-20T07:57:59;10.17;;;5.50;;
14191;SDS011;7177;48.572;7.838;2023-12-20T08:00:25;5.33;;;4.50;;
14191;SDS011;7177;48.572;7.838;2023-12-20T08:02:51;7.07;;;4.60;;
14191;SDS011;7177;48.572;7.838;2023-12-20T08:05:16;7.77;;;5.17;;
14191;SDS011;7177;48.572;7.838;2023-12-20T08:07:42;10.87;;;5.73;;
14191;SDS011;7177;48.572;7.838;2023-12-20T08:10:07;8.33;;;5.37;;
14191;SDS011;7177;48.572;7.838;2023-12-20T08:12:33;11.77;;;7.43;;
14191;SDS011;7177;48.572;7.838;2023-12-20T08:14:59;11.67;;;7.97;;
14191;SDS011;7177;48.572;7.838;2023-12-20T08:17:24;8.30;;;5.30;;
14191;SDS011;7177;48.572;7.838;2023-12-20T08:19:50;18.50;;;5.97;;
14191;SDS011;7177;48.572;7.838;2023-12-20T08:22:16;7.70;;;5.33;;
14191;SDS011;7177;48.572;7.838;2023-12-20T08:24:42;9.67;;;5.10;;
14191;SDS011;7177;48.572;7.838;2023-12-20T08:27:07;10.10;;;7.00;;
14191;SDS011;7177;48.572;7.838;2023-12-20T08:29:34;9.70;;;7.50;;
14191;SDS011;7177;48.572;7.838;2023-12-20T08:32:00;8.23;;;6.00;;
14191;SDS011;7177;48.572;7.838;2023-12-20T08:34:25;9.67;;;5.80;;
14191;SDS011;7177;48.572;7.838;2023-12-20T08:36:51;8.23;;;5.40;;
14191;SDS011;7177;48.572;7.838;2023-12-20T08:39:17;8.40;;;5.07;;
14191;SDS011;7177;48.572;7.838;2023-12-20T08:41:42;8.67;;;5.60;;
14191;SDS011;7177;48.572;7.838;2023-12-20T08:44:08;11.23;;;5.77;;
14191;SDS011;7177;48.572;7.838;2023-12-20T08:46:34;8.43;;;6.57;;
14191;SDS011;7177;48.572;7.838;2023-12-20T08:49:00;9.63;;;5.57;;
14191;SDS011;7177;48.572;7.838;2023-12-20T08:51:26;8.07;;;5.60;;
14191;SDS011;7177;48.572;7.838;2023-12-20T08:53:52;6.27;;;5.03;;
14191;SDS011;7177;48.572;7.838;2023-12-20T08:56:17;7.70;;;5.67;;
14191;SDS011;7177;48.572;7.838;2023-12-20T08:58:43;5.87;;;5.27;;
14191;SDS011;7177;48.572;7.838;2023-12-20T09:01:09;8.60;;;5.83;;
14191;SDS011;7177;48.572;7.838;2023-12-20T09:03:35;10.50;;;6.07;;
14191;SDS011;7177;48.572;7.838;2023-12-20T09:06:00;8.03;;;5.43;;
14191;SDS011;7177;48.572;7.838;2023-12-20T09:08:26;8.43;;;4.33;;
14191;SDS011;7177;48.572;7.838;2023-12-20T09:10:51;7.13;;;4.00;;
14191;SDS011;7177;48.572;7.838;2023-12-20T09:13:17;5.30;;;3.27;;
14191;SDS011;7177;48.572;7.838;2023-12-20T09:15:42;6.37;;;3.20;;
14191;SDS011;7177;48.572;7.838;2023-12-20T09:18:08;7.77;;;2.83;;
14191;SDS011;7177;48.572;7.838;2023-12-20T09:20:34;5.03;;;2.73;;
14191;SDS011;7177;48.572;7.838;2023-12-20T09:23:00;4.50;;;2.73;;
14191;SDS011;7177;48.572;7.838;2023-12-20T09:25:25;6.23;;;2.27;;
14191;SDS011;7177;48.572;7.838;2023-12-20T09:27:54;7.43;;;2.90;;
14191;SDS011;7177;48.572;7.838;2023-12-20T09:30:19;4.27;;;1.90;;
14191;SDS011;7177;48.572;7.838;2023-12-20T09:32:45;7.10;;;2.20;;
14191;SDS011;7177;48.572;7.838;2023-12-20T09:35:11;5.77;;;2.40;;
14191;SDS011;7177;48.572;7.838;2023-12-20T09:37:36;5.07;;;2.30;;
14191;SDS011;7177;48.572;7.838;2023-12-20T09:40:02;4.70;;;2.40;;
14191;SDS011;7177;48.572;7.838;2023-12-20T09:45:03;6.17;;;2.60;;
14191;SDS011;7177;48.572;7.838;2023-12-20T09:47:32;4.03;;;2.17;;
14191;SDS011;7177;48.572;7.838;2023-12-20T09:49:58;5.00;;;2.50;;
14191;SDS011;7177;48.572;7.838;2023-12-20T09:52:23;8.23;;;2.80;;
14191;SDS011;7177;48.572;7.838;2023-12-20T09:54:49;6.20;;;2.70;;
14191;SDS011;7177;48.572;7.838;2023-12-20T09:57:17;7.50;;;2.40;;
14191;SDS011;7177;48.572;7.838;2023-12-20T09:59:43;6.57;;;2.00;;
14191;SDS011;7177;48.572;7.838;2023-12-20T10:02:09;4.87;;;2.03;;
14191;SDS011;7177;48.572;7.838;2023-12-20T10:04:39;4.80;;;2.07;;
14191;SDS011;7177;48.572;7.838;2023-12-20T10:07:11;6.93;;;2.30;;
14191;SDS011;7177;48.572;7.838;2023-12-20T10:09:37;5.60;;;2.00;;
14191;SDS011;7177;48.572;7.838;2023-12-20T10:12:03;6.50;;;2.33;;
14191;SDS011;7177;48.572;7.838;2023-12-20T10:14:30;3.23;;;2.20;;
14191;SDS011;7177;48.572;7.838;2023-12-20T10:17:03;6.27;;;2.57;;
14191;SDS011;7177;48.572;7.838;2023-12-20T10:19:29;3.50;;;2.33;;
14191;SDS011;7177;48.572;7.838;2023-12-20T10:21:54;2.73;;;1.70;;
14191;SDS011;7177;48.572;7.838;2023-12-20T10:24:20;9.43;;;2.30;;
14191;SDS011;7177;48.572;7.838;2023-12-20T10:26:45;6.10;;;2.40;;
14191;SDS011;7177;48.572;7.838;2023-12-20T10:29:11;5.23;;;2.40;;
14191;SDS011;7177;48.572;7.838;2023-12-20T10:31:37;4.23;;;2.17;;
14191;SDS011;7177;48.572;7.838;2023-12-20T10:34:07;6.70;;;2.40;;
14191;SDS011;7177;48.572;7.838;2023-12-20T10:36:33;6.17;;;2.50;;
14191;SDS011;7177;48.572;7.838;2023-12-20T10:38:59;10.67;;;2.63;;
14191;SDS011;7177;48.572;7.838;2023-12-20T10:41:28;8.13;;;2.80;;
14191;SDS011;7177;48.572;7.838;2023-12-20T10:44:01;8.13;;;3.13;;
14191;SDS011;7177;48.572;7.838;2023-12-20T10:46:28;7.50;;;2.73;;
14191;SDS011;7177;48.572;7.838;2023-12-20T10:48:55;9.33;;;2.40;;
14191;SDS011;7177;48.572;7.838;2023-12-20T10:51:21;9.33;;;2.90;;
14191;SDS011;7177;48.572;7.838;2023-12-20T10:53:49;7.27;;;2.70;;
14191;SDS011;7177;48.572;7.838;2023-12-20T10:56:16;7.10;;;3.07;;
14191;SDS011;7177;48.572;7.838;2023-12-20T10:58:49;6.90;;;2.67;;
14191;SDS011;7177;48.572;7.838;2023-12-20T11:01:15;6.57;;;2.57;;
14191;SDS011;7177;48.572;7.838;2023-12-20T11:03:45;8.33;;;3.03;;
14191;SDS011;7177;48.572;7.838;2023-12-20T11:08:50;6.43;;;2.80;;
14191;SDS011;7177;48.572;7.838;2023-12-20T11:11:26;12.73;;;3.33;;
14191;SDS011;7177;48.572;7.838;2023-12-20T11:14:05;7.67;;;2.60;;
14191;SDS011;7177;48.572;7.838;2023-12-20T11:16:39;8.77;;;2.53;;
14191;SDS011;7177;48.572;7.838;2023-12-20T11:19:06;6.67;;;2.70;;
14191;SDS011;7177;48.572;7.838;2023-12-20T11:21:32;8.17;;;2.80;;
14191;SDS011;7177;48.572;7.838;2023-12-20T11:23:58;6.20;;;2.97;;
14191;SDS011;7177;48.572;7.838;2023-12-20T11:26:28;8.37;;;3.10;;
14191;SDS011;7177;48.572;7.838;2023-12-20T11:29:02;5.70;;;2.37;;
14191;SDS011;7177;48.572;7.838;2023-12-20T11:31:55;10.60;;;3.10;;
14191;SDS011;7177;48.572;7.838;2023-12-20T11:34:20;5.50;;;2.50;;
14191;SDS011;7177;48.572;7.838;2023-12-20T11:36:46;7.10;;;2.13;;
14191;SDS011;7177;48.572;7.838;2023-12-20T11:39:11;8.43;;;2.70;;
14191;SDS011;7177;48.572;7.838;2023-12-20T11:41:46;6.13;;;2.37;;
14191;SDS011;7177;48.572;7.838;2023-12-20T11:44:11;12.93;;;3.00;;
14191;SDS011;7177;48.572;7.838;2023-12-20T11:46:37;8.37;;;3.00;;
14191;SDS011;7177;48.572;7.838;2023-12-20T11:49:02;5.07;;;2.27;;
14191;SDS011;7177;48.572;7.838;2023-12-20T11:51:28;6.03;;;2.37;;
14191;SDS011;7177;48.572;7.838;2023-12-20T11:53:53;9.10;;;2.60;;
14191;SDS011;7177;48.572;7.838;2023-12-20T11:56:19;8.10;;;2.60;;
14191;SDS011;7177;48.572;7.838;2023-12-20T11:58:45;9.97;;;2.67;;
14191;SDS011;7177;48.572;7.838;2023-12-20T12:01:11;5.83;;;2.63;;
14191;SDS011;7177;48.572;7.838;2023-12-20T12:03:38;5.27;;;2.97;;
14191;SDS011;7177;48.572;7.838;2023-12-20T12:06:03;8.07;;;3.03;;
14191;SDS011;7177;48.572;7.838;2023-12-20T12:08:29;7.37;;;2.87;;
14191;SDS011;7177;48.572;7.838;2023-12-20T12:10:55;10.40;;;3.03;;
14191;SDS011;7177;48.572;7.838;2023-12-20T12:13:21;7.27;;;2.63;;
14191;SDS011;7177;48.572;7.838;2023-12-20T12:15:47;7.33;;;2.50;;
14191;SDS011;7177;48.572;7.838;2023-12-20T12:18:16;9.13;;;2.70;;
14191;SDS011;7177;48.572;7.838;2023-12-20T12:20:43;5.70;;;2.57;;
14191;SDS011;7177;48.572;7.838;2023-12-20T12:23:08;6.47;;;3.00;;
14191;SDS011;7177;48.572;7.838;2023-12-20T12:25:37;10.67;;;3.27;;
14191;SDS011;7177;48.572;7.838;2023-12-20T12:28:02;5.93;;;2.57;;
14191;SDS011;7177;48.572;7.838;2023-12-20T12:30:28;6.77;;;2.60;;
14191;SDS011;7177;48.572;7.838;2023-12-20T12:32:55;6.60;;;2.87;;
14191;SDS011;7177;48.572;7.838;2023-12-20T12:35:21;9.60;;;2.97;;
14191;SDS011;7177;48.572;7.838;2023-12-20T12:37:47;7.07;;;2.73;;
14191;SDS011;7177;48.572;7.838;2023-12-20T12:40:13;4.13;;;2.27;;
14191;SDS011;7177;48.572;7.838;2023-12-20T12:42:40;7.07;;;2.60;;
14191;SDS011;7177;48.572;7.838;2023-12-20T12:45:07;6.03;;;2.20;;
14191;SDS011;7177;48.572;7.838;2023-12-20T12:47:33;7.57;;;2.40;;
14191;SDS011;7177;48.572;7.838;2023-12-20T12:49:59;7.53;;;2.20;;
14191;SDS011;7177;48.572;7.838;2023-12-20T12:52:25;6.87;;;2.80;;
14191;SDS011;7177;48.572;7.838;2023-12-20T12:54:51;7.93;;;2.80;;
14191;SDS011;7177;48.572;7.838;2023-12-20T12:57:17;8.93;;;2.77;;
14191;SDS011;7177;48.572;7.838;2023-12-20T12:59:44;7.37;;;2.70;;
14191;SDS011;7177;48.572;7.838;2023-12-20T13:02:13;12.37;;;3.10;;
14191;SDS011;7177;48.572;7.838;2023-12-20T13:04:42;6.80;;;2.70;;
14191;SDS011;7177;48.572;7.838;2023-12-20T13:07:08;7.77;;;2.30;;
14191;SDS011;7177;48.572;7.838;2023-12-20T13:09:38;8.10;;;2.67;;
14191;SDS011;7177;48.572;7.838;2023-12-20T13:12:04;8.63;;;2.80;;
14191;SDS011;7177;48.572;7.838;2023-12-20T13:14:34;7.57;;;2.80;;
14191;SDS011;7177;48.572;7.838;2023-12-20T13:17:02;9.07;;;3.00;;
14191;SDS011;7177;48.572;7.838;2023-12-20T13:19:28;5.47;;;2.63;;
14191;SDS011;7177;48.572;7.838;2023-12-20T13:21:55;9.23;;;3.07;;
14191;SDS011;7177;48.572;7.838;2023-12-20T13:24:21;6.57;;;2.87;;
14191;SDS011;7177;48.572;7.838;2023-12-20T13:26:46;6.67;;;2.87;;
14191;SDS011;7177;48.572;7.838;2023-12-20T13:29:12;10.00;;;3.63;;
14191;SDS011;7177;48.572;7.838;2023-12-20T13:31:37;10.23;;;3.20;;
14191;SDS011;7177;48.572;7.838;2023-12-20T13:34:03;7.73;;;3.07;;
14191;SDS011;7177;48.572;7.838;2023-12-20T13:36:29;5.70;;;2.97;;
14191;SDS011;7177;48.572;7.838;2023-12-20T13:38:54;7.57;;;2.80;;
14191;SDS011;7177;48.572;7.838;2023-12-20T13:41:20;5.97;;;2.80;;
14191;SDS011;7177;48.572;7.838;2023-12-20T13:43:45;5.73;;;2.50;;
14191;SDS011;7177;48.572;7.838;2023-12-20T13:46:11;7.00;;;2.63;;
14191;SDS011;7177;48.572;7.838;2023-12-20T13:48:37;6.87;;;2.43;;
14191;SDS011;7177;48.572;7.838;2023-12-20T13:51:03;6.33;;;2.50;;
14191;SDS011;7177;48.572;7.838;2023-12-20T13:53:28;8.77;;;3.00;;
14191;SDS011;7177;48.572;7.838;2023-12-20T13:55:54;8.37;;;2.83;;
14191;SDS011;7177;48.572;7.838;2023-12-20T13:58:19;10.50;;;2.80;;
14191;SDS011;7177;48.572;7.838;2023-12-20T14:00:45;11.27;;;3.00;;
14191;SDS011;7177;48.572;7.838;2023-12-20T14:03:10;6.77;;;2.77;;
14191;SDS011;7177;48.572;7.838;2023-12-20T14:05:36;7.17;;;2.33;;
14191;SDS011;7177;48.572;7.838;2023-12-20T14:08:02;12.00;;;2.93;;
14191;SDS011;7177;48.572;7.838;2023-12-20T14:10:28;6.83;;;2.73;;
14191;SDS011;7177;48.572;7.838;2023-12-20T14:12:54;6.73;;;2.60;;
14191;SDS011;7177;48.572;7.838;2023-12-20T14:15:19;8.67;;;2.83;;
14191;SDS011;7177;48.572;7.838;2023-12-20T14:17:45;10.83;;;2.20;;
14191;SDS011;7177;48.572;7.838;2023-12-20T14:20:11;6.97;;;2.57;;
14191;SDS011;7177;48.572;7.838;2023-12-20T14:22:41;7.40;;;2.53;;
14191;SDS011;7177;48.572;7.838;2023-12-20T14:25:12;6.93;;;2.20;;
14191;SDS011;7177;48.572;7.838;2023-12-20T14:27:39;7.70;;;3.07;;
14191;SDS011;7177;48.572;7.838;2023-12-20T14:30:05;7.83;;;2.97;;
14191;SDS011;7177;48.572;7.838;2023-12-20T14:32:31;9.17;;;3.27;;
14191;SDS011;7177;48.572;7.838;2023-12-20T14:34:59;7.77;;;3.33;;
14191;SDS011;7177;48.572;7.838;2023-12-20T14:37:24;8.83;;;3.10;;
14191;SDS011;7177;48.572;7.838;2023-12-20T14:39:50;10.17;;;3.20;;
14191;SDS011;7177;48.572;7.838;2023-12-20T14:42:15;7.27;;;3.13;;
14191;SDS011;7177;48.572;7.838;2023-12-20T14:44:41;8.43;;;3.00;;
14191;SDS011;7177;48.572;7.838;2023-12-20T14:47:07;8.30;;;3.23;;
14191;SDS011;7177;48.572;7.838;2023-12-20T14:49:32;9.07;;;2.87;;
14191;SDS011;7177;48.572;7.838;2023-12-20T14:51:58;7.53;;;2.97;;
14191;SDS011;7177;48.572;7.838;2023-12-20T14:54:24;10.37;;;3.57;;
14191;SDS011;7177;48.572;7.838;2023-12-20T14:56:50;7.73;;;3.10;;